Time;durP1;ratioP1;P1;durP2;ratioP2;P2;SDS_P1;SDS_P2;PMS_P1;PMS_P2;Temp;Humidity;BMP_temperature;BMP_pressure;BME280_temperature;BME280_humidity;BME280_pressure;Samples;Min_cycle;Max_cycle;Signal;HPM_P1;HPM_P2
2022/07/01 00:05:05;;;;;;;3.03;2.53;;;;;;;19.98;64.62;100219.25;30946966;28;20058;-72
2022/07/01 00:20:07;;;;;;;5.82;3.35;;;;;;;19.84;66.01;100225.53;30915317;28;20054;-72
2022/07/01 00:35:09;;;;;;;7.87;3.43;;;;;;;19.77;67.20;100220.44;30913445;28;20062;-72
2022/07/01 00:50:13;;;;;;;5.55;3.85;;;;;;;19.59;68.30;100218.69;30922669;28;20058;-72
2022/07/01 01:05:17;;;;;;;5.35;3.65;;;;;;;19.41;68.68;100222.38;30905257;28;20053;-72
2022/07/01 01:20:20;;;;;;;6.88;4.07;;;;;;;19.18;69.04;100217.72;30906131;28;20051;-71
2022/07/01 01:35:22;;;;;;;9.88;4.65;;;;;;;19.05;70.02;100217.25;30923430;28;20465;-71
2022/07/01 01:50:24;;;;;;;8.45;4.85;;;;;;;18.95;71.36;100224.06;30952963;28;20042;-70
2022/07/01 02:05:27;;;;;;;8.55;5.05;;;;;;;18.97;72.14;100227.88;30948179;28;20057;-71
2022/07/01 02:20:28;;;;;;;9.20;5.32;;;;;;;19.06;73.04;100240.78;30953362;28;20061;-71
2022/07/01 02:35:31;;;;;;;11.45;5.63;;;;;;;19.25;73.29;100255.88;30938506;28;20059;-70
2022/07/01 02:50:33;;;;;;;9.80;5.70;;;;;;;19.54;74.02;100257.16;30938055;28;20057;-72
2022/07/01 03:05:35;;;;;;;13.40;5.63;;;;;;;19.84;74.29;100258.59;30951773;28;20055;-71
2022/07/01 03:20:37;;;;;;;7.70;5.63;;;;;;;20.14;74.00;100275.06;30931426;28;20057;-71
2022/07/01 03:35:45;;;;;;;11.35;6.03;;;;;;;20.38;73.76;100272.91;30948645;28;20058;-71
2022/07/01 03:50:47;;;;;;;11.57;5.93;;;;;;;20.83;73.36;100273.47;30904239;28;20047;-71
2022/07/01 04:05:49;;;;;;;9.93;5.75;;;;;;;21.44;70.49;100277.63;30905380;28;20145;-72
2022/07/01 04:36:12;;;;;;;9.38;5.15;;;;;;;22.82;62.64;100271.97;30937510;28;20051;-72
2022/07/01 04:51:14;;;;;;;8.33;6.03;;;;;;;23.53;54.96;100267.81;30922363;28;20050;-71
2022/07/01 05:06:17;;;;;;;9.57;5.47;;;;;;;24.07;53.53;100267.50;30900851;28;20055;-71
2022/07/01 05:36:39;;;;;;;10.43;5.82;;;;;;;25.52;48.70;100296.59;30938685;28;20042;-68
2022/07/01 05:51:41;;;;;;;;;;;;;;;26.03;44.43;100287.31;30955511;28;20054;-68
2022/07/01 06:06:43;;;;;;;7.45;4.50;;;;;;;26.50;42.84;100276.72;30925775;28;20379;-68
2022/07/01 06:21:45;;;;;;;5.93;4.20;;;;;;;27.17;42.44;100263.91;30915534;28;20068;-68
2022/07/01 06:36:47;;;;;;;8.85;3.47;;;;;;;27.67;42.18;100259.59;30929355;28;20065;-70
2022/07/01 06:51:49;;;;;;;16.38;11.07;;;;;;;28.25;40.40;100258.81;30939636;28;20061;-70
2022/07/01 07:06:51;;;;;;;4.65;3.13;;;;;;;28.88;40.75;100243.03;30941842;28;20056;-70
2022/07/01 07:21:53;;;;;;;7.13;3.33;;;;;;;28.37;39.97;100246.88;30917507;28;20042;-72
2022/07/01 07:36:55;;;;;;;5.63;3.05;;;;;;;27.92;41.07;100246.22;30964125;28;20050;-69
2022/07/01 07:51:57;;;;;;;4.00;3.00;;;;;;;27.54;40.09;100259.56;30898608;28;20038;-70
2022/07/01 08:06:59;;;;;;;3.55;3.03;;;;;;;28.23;40.70;100253.78;30953040;28;20050;-69
2022/07/01 08:22:03;;;;;;;7.45;4.95;;;;;;;28.43;40.89;100243.97;30968284;28;20054;-68
2022/07/01 08:37:05;;;;;;;4.28;3.42;;;;;;;28.42;41.25;100253.63;30973419;28;20509;-70
2022/07/01 08:52:09;;;;;;;6.88;3.53;;;;;;;28.81;40.31;100245.22;30927224;28;20157;-71
2022/07/01 09:07:11;;;;;;;3.25;2.95;;;;;;;29.63;36.93;100231.06;30918707;28;20644;-69
2022/07/01 09:22:13;;;;;;;2.63;2.13;;;;;;;30.83;34.85;100224.63;30920735;28;20066;-69
2022/07/01 09:37:21;;;;;;;4.47;2.72;;;;;;;31.83;32.01;100214.22;30902561;28;20046;-69
2022/07/01 09:52:24;;;;;;;11.13;7.13;;;;;;;31.86;30.92;100204.69;30907359;28;20046;-69
2022/07/01 10:08:03;;;;;;;5.47;3.33;;;;;;;32.78;29.70;100191.78;30972035;28;20055;-69
2022/07/01 10:23:06;;;;;;;3.10;2.17;;;;;;;32.91;27.91;100175.94;30960803;28;20069;-71
2022/07/01 10:38:13;;;;;;;4.40;2.53;;;;;;;33.25;28.52;100153.56;30919718;28;20473;-71
2022/07/01 10:53:20;;;;;;;5.65;2.80;;;;;;;33.60;27.55;100154.34;30934359;28;20955;-68
2022/07/01 11:08:23;;;;;;;9.98;5.57;;;;;;;33.02;26.77;100147.38;30951261;28;20058;-70
2022/07/01 11:23:31;;;;;;;2.30;1.40;;;;;;;31.36;26.68;100136.28;30931699;28;20123;-69
2022/07/01 11:54:06;;;;;;;4.85;1.73;;;;;;;29.35;28.09;100115.06;30948279;28;20054;-70
2022/07/01 12:09:18;;;;;;;5.15;2.30;;;;;;;29.36;28.85;100113.78;30942338;28;20090;-68
2022/07/01 12:24:22;;;;;;;7.72;1.67;;;;;;;28.76;29.59;100109.19;30927783;28;20062;-70
2022/07/01 12:39:25;;;;;;;3.58;1.73;;;;;;;28.56;29.06;100107.13;30951552;28;20049;-68
2022/07/01 12:54:31;;;;;;;5.70;1.58;;;;;;;28.48;29.08;100106.31;30960731;28;20058;-69
2022/07/01 13:09:33;;;;;;;3.13;1.63;;;;;;;28.35;30.98;100103.53;30960865;28;20062;-70
2022/07/01 13:24:39;;;;;;;2.80;2.13;;;;;;;28.05;31.59;100109.53;30917305;28;20065;-69
2022/07/01 13:39:41;;;;;;;3.22;1.60;;;;;;;28.11;32.75;100099.72;30940142;28;20154;-71
2022/07/01 13:54:44;;;;;;;4.38;1.52;;;;;;;28.10;31.73;100095.47;30920779;28;20489;-70
2022/07/01 14:09:46;;;;;;;9.98;3.00;;;;;;;28.01;32.63;100093.09;30920599;28;20054;-70
2022/07/01 14:24:48;;;;;;;4.03;1.90;;;;;;;27.79;32.92;100093.56;30948154;28;20086;-70
2022/07/01 14:39:55;;;;;;;5.43;2.90;;;;;;;27.75;32.74;100093.16;30962778;28;20054;-68
2022/07/01 14:54:58;;;;;;;13.10;3.05;;;;;;;27.70;33.96;100068.91;30922260;28;20065;-69
2022/07/01 15:10:01;;;;;;;3.15;2.22;;;;;;;27.48;35.37;100078.44;30904689;28;20114;-69
2022/07/01 15:25:03;;;;;;;3.50;2.08;;;;;;;27.51;34.35;100082.94;30938055;28;20066;-72
2022/07/01 15:40:06;;;;;;;4.30;2.22;;;;;;;27.42;34.11;100078.53;30917131;28;20480;-69
2022/07/01 15:55:08;;;;;;;4.15;2.55;;;;;;;27.37;34.09;100092.59;30973501;28;20062;-69
2022/07/01 16:10:35;;;;;;;4.22;2.00;;;;;;;27.18;32.95;100098.25;30927046;28;20054;-70
2022/07/01 16:25:39;;;;;;;4.53;1.58;;;;;;;27.00;33.77;100093.50;30956535;28;20064;-69
2022/07/01 16:40:49;;;;;;;5.43;1.73;;;;;;;26.79;34.35;100091.28;30930295;28;20062;-70
2022/07/01 16:55:51;;;;;;;3.42;1.80;;;;;;;26.63;35.37;100100.66;30941171;28;20433;-71
2022/07/01 17:10:55;;;;;;;6.75;2.00;;;;;;;26.39;36.94;100117.47;30901371;28;20061;-69
2022/07/01 17:25:57;;;;;;;3.67;1.85;;;;;;;26.06;38.93;100122.19;30946838;28;20064;-70
2022/07/01 17:41:02;;;;;;;4.70;2.22;;;;;;;25.77;39.71;100125.81;30955214;28;20050;-71
2022/07/01 17:56:06;;;;;;;3.67;2.45;;;;;;;25.48;40.75;100136.47;30962056;28;20485;-69
2022/07/01 18:11:21;;;;;;;3.17;2.17;;;;;;;25.26;41.30;100156.13;30939229;28;20042;-69
2022/07/01 18:26:27;;;;;;;5.10;2.53;;;;;;;25.03;41.93;100163.16;30952039;28;20058;-69
2022/07/01 18:41:29;;;;;;;4.15;2.15;;;;;;;24.63;44.41;100176.50;30941813;28;20050;-71
2022/07/01 18:56:31;;;;;;;6.63;3.70;;;;;;;24.43;44.14;100179.66;30960819;28;20395;-71
2022/07/01 19:11:34;;;;;;;7.50;2.50;;;;;;;24.19;44.82;100201.66;30901672;28;20053;-72
2022/07/01 19:26:36;;;;;;;11.00;2.80;;;;;;;23.86;45.53;100202.53;30925113;28;20061;-71
2022/07/01 19:41:38;;;;;;;5.47;2.70;;;;;;;23.56;46.51;100210.66;30941431;28;20054;-70
2022/07/01 19:56:40;;;;;;;4.30;2.17;;;;;;;23.35;46.92;100219.19;30942133;28;20058;-72
2022/07/01 20:11:42;;;;;;;4.90;2.53;;;;;;;23.04;48.15;100220.16;30920170;28;20057;-71
2022/07/01 20:26:44;;;;;;;4.37;1.87;;;;;;;22.87;49.18;100235.25;30933097;28;20322;-71
2022/07/01 20:41:46;;;;;;;5.10;2.50;;;;;;;22.69;49.68;100253.75;30942671;28;20062;-72
2022/07/01 20:56:48;;;;;;;2.50;1.87;;;;;;;22.40;50.67;100248.66;30928526;28;20121;-72
2022/07/01 21:11:50;;;;;;;5.00;2.10;;;;;;;22.18;51.24;100254.81;30928799;28;20065;-71
2022/07/01 21:26:52;;;;;;;4.80;2.45;;;;;;;22.04;51.89;100272.31;30921197;28;20050;-71
2022/07/01 21:41:54;;;;;;;5.65;3.63;;;;;;;21.85;52.46;100271.91;30916621;28;20050;-71
2022/07/01 21:56:58;;;;;;;5.75;2.22;;;;;;;21.67;52.51;100266.78;30914435;28;20054;-71
2022/07/01 22:12:06;;;;;;;3.47;1.88;;;;;;;21.53;53.18;100290.50;30916085;28;20405;-71
2022/07/01 22:27:09;;;;;;;5.32;2.20;;;;;;;21.31;53.23;100285.53;30939278;28;20046;-72
2022/07/01 22:42:13;;;;;;;4.00;2.33;;;;;;;21.19;53.33;100305.97;30924336;28;20074;-72
2022/07/01 22:57:41;;;;;;;5.38;2.30;;;;;;;21.17;53.79;100324.28;30935606;28;20484;-72
2022/07/01 23:12:58;;;;;;;5.35;2.70;;;;;;;20.84;52.78;100330.16;30905194;28;20061;-71
2022/07/01 23:28:00;;;;;;;5.30;2.83;;;;;;;20.61;52.43;100353.94;30918452;28;20066;-70
2022/07/01 23:43:03;;;;;;;9.53;2.97;;;;;;;20.33;51.23;100361.78;30929303;28;20050;-72
2022/07/01 23:58:04;;;;;;;9.13;3.80;;;;;;;20.22;50.09;100380.94;30930075;28;20416;-71
